Estación Meteorológica Peña el Pijo (Robertgarden) [ 07/20/18 16:40:56 CEST ]

Fecha Hora Presion(HPa) Temp (°C) Humedad % Rocio (°C) Viento ( m/s) Direccion Lluvia 1Hora(mm) Lluvia 24H(mm) LLuvia Total(mm)
2018-Jan-31 01:01:14 1014.700 2.7 85 0.4         62.67
2018-Jan-31 02:04:26 1014.200 2.3 85 0.0         62.67
2018-Jan-31 03:03:09 1013.700 1.8 86 -0.3         62.67
2018-Jan-31 04:01:24 1013.400 0.6 86 -1.5         62.67
2018-Jan-31 05:01:25 1012.700 -0.5 86 -2.5         62.67
2018-Jan-31 06:01:19 1012.800 -1.5 87 -3.4         62.67
2018-Jan-31 07:01:52 1012.700 -1.7 87 -3.6         62.67
2018-Jan-31 08:01:29 1012.800 -2.4 88 -4.1         62.67
2018-Jan-31 09:01:26 1013.100 -2.1 88 -3.8         62.67
2018-Jan-31 10:01:35 1012.800 1.9 88 0.1         62.67
2018-Jan-31 11:01:14 1012.700 6.4 81 3.2         62.67
2018-Jan-31 12:01:28 1012.000 10.8 56 2.3         62.67
2018-Jan-31 13:01:26 1011.400 13.2 43 0.8         62.67
2018-Jan-31 14:01:44 1010.400 15.1 40 1.6         62.67
2018-Jan-31 15:01:48 1008.100 14.9 37 0.2         62.67
2018-Jan-31 16:01:58 1008.300 13.6 45 1.8         62.67
2018-Jan-31 17:01:39 1007.800 11.3 54 2.3         62.67
2018-Jan-31 18:01:49 1007.900 9.9 60 2.5         62.67
2018-Jan-31 19:01:43 1008.100 7.2 67 1.5         62.67
2018-Jan-31 20:01:43 1008.600 5.9 73 1.4         62.67
2018-Jan-31 21:01:32 1007.900 4.8 75 0.7         62.67
2018-Jan-31 22:01:55 1008.000 3.8 77 0.1         62.67
2018-Jan-31 23:01:47 1007.300 3.4 79 0.1         62.67

Temperatura Máxima:15°    Temperatura Mínima:-2°
Presión Máxima:1014.700 Hpa    Presión Mínima:1007.300 Hpa


Volver